sensor_id;sensor_type;location;lat;lon;timestamp;pressure;altitude;pressure_sealevel;temperature;humidity
81125;BME280;71444;52.114;5.424;2023-08-08T00:02:18;101536.66;;;13.36;96.68
81125;BME280;71444;52.114;5.424;2023-08-08T00:05:07;101530.94;;;13.39;96.70
81125;BME280;71444;52.114;5.424;2023-08-08T00:07:56;101526.84;;;13.43;96.42
81125;BME280;71444;52.114;5.424;2023-08-08T00:10:44;101518.38;;;13.46;96.60
81125;BME280;71444;52.114;5.424;2023-08-08T00:13:32;101526.19;;;13.49;96.75
81125;BME280;71444;52.114;5.424;2023-08-08T00:16:20;101526.88;;;13.51;96.35
81125;BME280;71444;52.114;5.424;2023-08-08T00:19:11;101520.25;;;13.54;96.58
81125;BME280;71444;52.114;5.424;2023-08-08T00:22:00;101524.19;;;13.59;96.51
81125;BME280;71444;52.114;5.424;2023-08-08T00:24:48;101521.97;;;13.63;96.63
81125;BME280;71444;52.114;5.424;2023-08-08T00:27:36;101516.06;;;13.67;96.80
81125;BME280;71444;52.114;5.424;2023-08-08T00:30:29;101517.41;;;13.71;96.69
81125;BME280;71444;52.114;5.424;2023-08-08T00:33:18;101519.97;;;13.73;96.40
81125;BME280;71444;52.114;5.424;2023-08-08T00:36:06;101518.63;;;13.77;96.54
81125;BME280;71444;52.114;5.424;2023-08-08T00:38:55;101514.88;;;13.78;96.56
81125;BME280;71444;52.114;5.424;2023-08-08T00:41:43;101515.06;;;13.76;96.52
81125;BME280;71444;52.114;5.424;2023-08-08T00:44:31;101511.81;;;13.73;96.07
81125;BME280;71444;52.114;5.424;2023-08-08T00:47:19;101504.88;;;13.70;95.73
81125;BME280;71444;52.114;5.424;2023-08-08T00:50:07;101505.72;;;13.71;96.17
81125;BME280;71444;52.114;5.424;2023-08-08T00:52:59;101500.28;;;13.71;96.03
81125;BME280;71444;52.114;5.424;2023-08-08T00:55:47;101513.00;;;13.70;96.31
81125;BME280;71444;52.114;5.424;2023-08-08T00:58:36;101501.13;;;13.71;96.09
81125;BME280;71444;52.114;5.424;2023-08-08T01:01:24;101494.69;;;13.72;95.89
81125;BME280;71444;52.114;5.424;2023-08-08T01:04:12;101496.19;;;13.75;95.64
81125;BME280;71444;52.114;5.424;2023-08-08T01:13:00;101491.31;;;13.78;96.33
81125;BME280;71444;52.114;5.424;2023-08-08T01:15:52;101500.97;;;13.81;96.57
81125;BME280;71444;52.114;5.424;2023-08-08T01:18:44;101501.81;;;13.82;96.32
81125;BME280;71444;52.114;5.424;2023-08-08T01:21:37;101499.94;;;13.82;96.50
81125;BME280;71444;52.114;5.424;2023-08-08T01:24:29;101501.66;;;13.83;96.51
81125;BME280;71444;52.114;5.424;2023-08-08T01:27:19;101498.94;;;13.83;96.54
81125;BME280;71444;52.114;5.424;2023-08-08T01:30:08;101493.69;;;13.82;96.84
81125;BME280;71444;52.114;5.424;2023-08-08T01:32:57;101495.53;;;13.81;96.80
81125;BME280;71444;52.114;5.424;2023-08-08T01:35:53;101493.84;;;13.80;96.69
81125;BME280;71444;52.114;5.424;2023-08-08T01:38:51;101495.88;;;13.78;96.83
81125;BME280;71444;52.114;5.424;2023-08-08T01:41:43;101487.91;;;13.76;96.98
81125;BME280;71444;52.114;5.424;2023-08-08T01:44:33;101491.78;;;13.74;96.77
81125;BME280;71444;52.114;5.424;2023-08-08T01:47:22;101489.44;;;13.71;96.98
81125;BME280;71444;52.114;5.424;2023-08-08T01:50:10;101477.72;;;13.70;96.93
81125;BME280;71444;52.114;5.424;2023-08-08T01:53:00;101488.75;;;13.69;97.14
81125;BME280;71444;52.114;5.424;2023-08-08T01:55:49;101481.63;;;13.68;97.27
81125;BME280;71444;52.114;5.424;2023-08-08T01:58:38;101467.03;;;13.69;97.14
81125;BME280;71444;52.114;5.424;2023-08-08T02:01:27;101474.16;;;13.70;97.24
81125;BME280;71444;52.114;5.424;2023-08-08T02:03:55;101459.75;;;13.69;97.40
81125;BME280;71444;52.114;5.424;2023-08-08T02:06:43;101478.56;;;13.71;97.23
81125;BME280;71444;52.114;5.424;2023-08-08T02:09:31;101468.75;;;13.70;97.35
81125;BME280;71444;52.114;5.424;2023-08-08T02:12:19;101469.59;;;13.70;97.35
81125;BME280;71444;52.114;5.424;2023-08-08T02:15:07;101465.34;;;13.68;97.41
81125;BME280;71444;52.114;5.424;2023-08-08T02:17:56;101459.22;;;13.66;97.16
81125;BME280;71444;52.114;5.424;2023-08-08T02:20:50;101462.28;;;13.63;97.51
81125;BME280;71444;52.114;5.424;2023-08-08T02:23:38;101455.16;;;13.62;97.61
81125;BME280;71444;52.114;5.424;2023-08-08T02:26:26;101464.13;;;13.62;97.58
81125;BME280;71444;52.114;5.424;2023-08-08T02:29:14;101454.13;;;13.63;97.62
81125;BME280;71444;52.114;5.424;2023-08-08T02:32:02;101459.06;;;13.59;97.58
81125;BME280;71444;52.114;5.424;2023-08-08T02:34:50;101455.69;;;13.57;97.35
81125;BME280;71444;52.114;5.424;2023-08-08T02:37:39;101450.38;;;13.56;97.73
81125;BME280;71444;52.114;5.424;2023-08-08T02:40:27;101454.78;;;13.57;97.52
81125;BME280;71444;52.114;5.424;2023-08-08T02:43:15;101445.81;;;13.56;97.58
81125;BME280;71444;52.114;5.424;2023-08-08T02:46:03;101448.69;;;13.55;97.99
81125;BME280;71444;52.114;5.424;2023-08-08T02:48:51;101454.28;;;13.53;97.74
81125;BME280;71444;52.114;5.424;2023-08-08T02:51:39;101453.97;;;13.48;97.79
81125;BME280;71444;52.114;5.424;2023-08-08T02:54:27;101450.72;;;13.44;97.87
81125;BME280;71444;52.114;5.424;2023-08-08T02:57:16;101450.03;;;13.42;97.87
81125;BME280;71444;52.114;5.424;2023-08-08T03:00:04;101454.44;;;13.43;98.00
81125;BME280;71444;52.114;5.424;2023-08-08T03:02:54;101450.72;;;13.44;97.98
81125;BME280;71444;52.114;5.424;2023-08-08T03:05:45;101444.44;;;13.44;98.10
81125;BME280;71444;52.114;5.424;2023-08-08T03:08:33;101442.75;;;13.43;98.40
81125;BME280;71444;52.114;5.424;2023-08-08T03:11:21;101437.84;;;13.38;97.88
81125;BME280;71444;52.114;5.424;2023-08-08T03:14:09;101442.72;;;13.35;97.99
81125;BME280;71444;52.114;5.424;2023-08-08T03:16:57;101442.91;;;13.33;97.66
81125;BME280;71444;52.114;5.424;2023-08-08T03:19:45;101442.06;;;13.33;97.90
81125;BME280;71444;52.114;5.424;2023-08-08T03:22:33;101443.09;;;13.32;97.96
81125;BME280;71444;52.114;5.424;2023-08-08T03:25:21;101446.81;;;13.31;97.87
81125;BME280;71444;52.114;5.424;2023-08-08T03:28:09;101440.53;;;13.30;97.63
81125;BME280;71444;52.114;5.424;2023-08-08T03:30:57;101439.03;;;13.28;97.63
81125;BME280;71444;52.114;5.424;2023-08-08T03:33:45;101448.00;;;13.28;97.87
81125;BME280;71444;52.114;5.424;2023-08-08T03:36:34;101440.84;;;13.27;97.71
81125;BME280;71444;52.114;5.424;2023-08-08T03:39:22;101435.44;;;13.27;98.14
81125;BME280;71444;52.114;5.424;2023-08-08T03:42:10;101432.88;;;13.26;97.85
81125;BME280;71444;52.114;5.424;2023-08-08T03:44:59;101430.16;;;13.26;97.83
81125;BME280;71444;52.114;5.424;2023-08-08T03:47:47;101431.03;;;13.26;98.13
81125;BME280;71444;52.114;5.424;2023-08-08T03:50:38;101429.31;;;13.25;98.27
81125;BME280;71444;52.114;5.424;2023-08-08T03:53:26;101437.47;;;13.25;98.37
81125;BME280;71444;52.114;5.424;2023-08-08T03:56:14;101428.81;;;13.22;98.16
81125;BME280;71444;52.114;5.424;2023-08-08T03:59:02;101427.31;;;13.19;98.20
81125;BME280;71444;52.114;5.424;2023-08-08T04:01:50;101427.31;;;13.19;98.37
81125;BME280;71444;52.114;5.424;2023-08-08T04:04:39;101425.44;;;13.19;98.45
81125;BME280;71444;52.114;5.424;2023-08-08T04:07:27;101416.44;;;13.19;98.30
81125;BME280;71444;52.114;5.424;2023-08-08T04:10:15;101419.44;;;13.16;98.25
81125;BME280;71444;52.114;5.424;2023-08-08T04:13:03;101413.34;;;13.14;98.05
81125;BME280;71444;52.114;5.424;2023-08-08T04:15:51;101415.38;;;13.12;97.98
81125;BME280;71444;52.114;5.424;2023-08-08T04:18:39;101419.28;;;13.09;97.95
81125;BME280;71444;52.114;5.424;2023-08-08T04:21:27;101412.31;;;13.07;98.08
81125;BME280;71444;52.114;5.424;2023-08-08T04:24:18;101413.84;;;13.01;98.05
81125;BME280;71444;52.114;5.424;2023-08-08T04:27:06;101407.38;;;12.94;98.00
81125;BME280;71444;52.114;5.424;2023-08-08T04:29:55;101414.16;;;12.90;97.83
81125;BME280;71444;52.114;5.424;2023-08-08T04:32:43;101410.03;;;12.86;98.18
81125;BME280;71444;52.114;5.424;2023-08-08T04:35:31;101415.47;;;12.86;97.62
81125;BME280;71444;52.114;5.424;2023-08-08T04:38:19;101413.44;;;12.88;97.80
81125;BME280;71444;52.114;5.424;2023-08-08T04:41:07;101415.84;;;12.91;97.50
81125;BME280;71444;52.114;5.424;2023-08-08T04:43:55;101421.75;;;12.95;97.63
81125;BME280;71444;52.114;5.424;2023-08-08T04:46:43;101416.88;;;12.98;97.88
81125;BME280;71444;52.114;5.424;2023-08-08T04:49:31;101408.25;;;13.03;97.42
81125;BME280;71444;52.114;5.424;2023-08-08T04:52:20;101417.59;;;13.08;97.71
81125;BME280;71444;52.114;5.424;2023-08-08T04:55:08;101403.69;;;13.11;97.44
81125;BME280;71444;52.114;5.424;2023-08-08T04:57:57;101409.78;;;13.13;97.17
81125;BME280;71444;52.114;5.424;2023-08-08T05:00:46;101404.19;;;13.15;97.48
81125;BME280;71444;52.114;5.424;2023-08-08T05:03:34;101404.19;;;13.15;97.15
81125;BME280;71444;52.114;5.424;2023-08-08T05:06:22;101401.47;;;13.15;96.94
81125;BME280;71444;52.114;5.424;2023-08-08T05:09:11;101407.75;;;13.15;97.11
81125;BME280;71444;52.114;5.424;2023-08-08T05:11:59;101408.47;;;13.17;96.84
81125;BME280;71444;52.114;5.424;2023-08-08T05:14:48;101403.22;;;13.24;96.59
81125;BME280;71444;52.114;5.424;2023-08-08T05:17:36;101401.38;;;13.33;96.69
81125;BME280;71444;52.114;5.424;2023-08-08T05:20:24;101411.91;;;13.44;96.28
81125;BME280;71444;52.114;5.424;2023-08-08T05:23:12;101410.38;;;13.49;96.08
81125;BME280;71444;52.114;5.424;2023-08-08T05:26:00;101412.41;;;13.56;95.82
81125;BME280;71444;52.114;5.424;2023-08-08T05:28:39;101412.09;;;13.59;95.79
81125;BME280;71444;52.114;5.424;2023-08-08T05:31:28;101413.09;;;13.58;95.73
81125;BME280;71444;52.114;5.424;2023-08-08T05:34:16;101417.16;;;13.62;95.69
81125;BME280;71444;52.114;5.424;2023-08-08T05:36:58;101419.47;;;14.22;95.07
81125;BME280;71444;52.114;5.424;2023-08-08T05:39:37;101415.41;;;15.81;90.63
81125;BME280;71444;52.114;5.424;2023-08-08T05:42:17;101421.59;;;16.86;87.12
81125;BME280;71444;52.114;5.424;2023-08-08T05:44:57;101414.19;;;17.38;81.72
81125;BME280;71444;52.114;5.424;2023-08-08T05:47:37;101421.50;;;17.95;81.91
81125;BME280;71444;52.114;5.424;2023-08-08T05:50:16;101417.06;;;17.94;79.17
81125;BME280;71444;52.114;5.424;2023-08-08T05:52:57;101415.03;;;17.38;81.24
81125;BME280;71444;52.114;5.424;2023-08-08T05:55:37;101421.59;;;17.01;82.00
81125;BME280;71444;52.114;5.424;2023-08-08T05:58:19;101419.63;;;16.80;83.03
81125;BME280;71444;52.114;5.424;2023-08-08T06:01:00;101416.91;;;16.66;81.42
81125;BME280;71444;52.114;5.424;2023-08-08T06:03:39;101420.56;;;16.58;82.51
81125;BME280;71444;52.114;5.424;2023-08-08T06:06:20;101424.22;;;16.65;82.10
81125;BME280;71444;52.114;5.424;2023-08-08T06:09:00;101418.81;;;17.59;79.25
81125;BME280;71444;52.114;5.424;2023-08-08T06:11:39;101419.63;;;18.99;74.32
81125;BME280;71444;52.114;5.424;2023-08-08T06:14:17;101422.53;;;20.12;70.90
81125;BME280;71444;52.114;5.424;2023-08-08T06:16:56;101415.28;;;21.15;65.70
81125;BME280;71444;52.114;5.424;2023-08-08T06:19:35;101419.19;;;21.70;62.04
81125;BME280;71444;52.114;5.424;2023-08-08T06:22:15;101422.09;;;21.06;63.83
81125;BME280;71444;52.114;5.424;2023-08-08T06:24:54;101427.19;;;20.18;65.79
81125;BME280;71444;52.114;5.424;2023-08-08T06:27:36;101428.78;;;19.33;67.34
81125;BME280;71444;52.114;5.424;2023-08-08T06:30:16;101434.03;;;18.73;68.71
81125;BME280;71444;52.114;5.424;2023-08-08T06:32:56;101440.91;;;18.34;70.28
81125;BME280;71444;52.114;5.424;2023-08-08T06:35:38;101435.59;;;17.98;70.41
81125;BME280;71444;52.114;5.424;2023-08-08T06:38:18;101441.97;;;17.63;72.82
81125;BME280;71444;52.114;5.424;2023-08-08T06:40:58;101436.78;;;17.46;72.79
81125;BME280;71444;52.114;5.424;2023-08-08T06:43:39;101440.66;;;17.37;73.12
81125;BME280;71444;52.114;5.424;2023-08-08T06:46:18;101441.25;;;17.33;73.01
81125;BME280;71444;52.114;5.424;2023-08-08T06:48:58;101433.56;;;17.22;72.16
81125;BME280;71444;52.114;5.424;2023-08-08T06:51:39;101433.75;;;17.20;73.09
81125;BME280;71444;52.114;5.424;2023-08-08T06:54:18;101440.97;;;17.28;70.81
81125;BME280;71444;52.114;5.424;2023-08-08T06:56:58;101438.94;;;17.15;71.69
81125;BME280;71444;52.114;5.424;2023-08-08T06:59:39;101442.72;;;17.14;71.05
81125;BME280;71444;52.114;5.424;2023-08-08T07:02:21;101448.72;;;17.24;70.87
81125;BME280;71444;52.114;5.424;2023-08-08T07:04:51;101444.19;;;17.31;71.25
81125;BME280;71444;52.114;5.424;2023-08-08T07:07:30;101447.16;;;17.36;70.03
81125;BME280;71444;52.114;5.424;2023-08-08T07:10:11;101438.91;;;17.30;69.20
81125;BME280;71444;52.114;5.424;2023-08-08T07:12:51;101443.19;;;17.39;68.93
81125;BME280;71444;52.114;5.424;2023-08-08T07:15:31;101438.09;;;17.51;69.19
81125;BME280;71444;52.114;5.424;2023-08-08T07:18:10;101433.16;;;17.61;67.15
81125;BME280;71444;52.114;5.424;2023-08-08T07:20:59;101440.66;;;17.59;68.50
81125;BME280;71444;52.114;5.424;2023-08-08T07:23:39;101427.69;;;17.82;68.59
81125;BME280;71444;52.114;5.424;2023-08-08T07:26:19;101432.03;;;17.76;64.92
81125;BME280;71444;52.114;5.424;2023-08-08T07:29:02;101425.66;;;17.69;66.12
81125;BME280;71444;52.114;5.424;2023-08-08T07:31:44;101427.38;;;17.70;66.78
81125;BME280;71444;52.114;5.424;2023-08-08T07:34:23;101426.44;;;17.85;66.94
81125;BME280;71444;52.114;5.424;2023-08-08T07:37:03;101429.47;;;17.96;65.98
81125;BME280;71444;52.114;5.424;2023-08-08T07:39:46;101419.75;;;17.87;65.61
81125;BME280;71444;52.114;5.424;2023-08-08T07:42:41;101418.53;;;17.90;65.77
81125;BME280;71444;52.114;5.424;2023-08-08T07:45:29;101414.19;;;18.02;63.49
81125;BME280;71444;52.114;5.424;2023-08-08T07:48:09;101418.69;;;18.16;64.17
81125;BME280;71444;52.114;5.424;2023-08-08T07:50:50;101411.19;;;18.25;62.37
81125;BME280;71444;52.114;5.424;2023-08-08T07:53:30;101408.13;;;18.06;62.02
81125;BME280;71444;52.114;5.424;2023-08-08T07:56:11;101397.81;;;18.09;61.90
81125;BME280;71444;52.114;5.424;2023-08-08T07:58:54;101413.34;;;18.01;62.63
81125;BME280;71444;52.114;5.424;2023-08-08T08:01:34;101419.00;;;18.28;62.25
81125;BME280;71444;52.114;5.424;2023-08-08T08:04:21;101406.84;;;18.37;62.46
81125;BME280;71444;52.114;5.424;2023-08-08T08:07:00;101409.31;;;18.60;62.17
81125;BME280;71444;52.114;5.424;2023-08-08T08:09:40;101410.03;;;18.69;61.46
81125;BME280;71444;52.114;5.424;2023-08-08T08:12:20;101409.59;;;18.72;60.22
81125;BME280;71444;52.114;5.424;2023-08-08T08:15:00;101412.13;;;18.73;57.89
81125;BME280;71444;52.114;5.424;2023-08-08T08:17:40;101408.38;;;18.81;60.10
81125;BME280;71444;52.114;5.424;2023-08-08T08:20:31;101403.41;;;18.98;60.74
81125;BME280;71444;52.114;5.424;2023-08-08T08:23:12;101398.16;;;19.03;59.02
81125;BME280;71444;52.114;5.424;2023-08-08T08:25:52;101410.19;;;19.08;57.23
81125;BME280;71444;52.114;5.424;2023-08-08T08:28:32;101403.88;;;19.08;56.57
81125;BME280;71444;52.114;5.424;2023-08-08T08:31:21;101411.78;;;18.89;58.20
81125;BME280;71444;52.114;5.424;2023-08-08T08:34:09;101412.25;;;19.00;57.19
81125;BME280;71444;52.114;5.424;2023-08-08T08:36:57;101403.78;;;18.95;57.62
81125;BME280;71444;52.114;5.424;2023-08-08T08:39:45;101411.19;;;19.01;56.91
81125;BME280;71444;52.114;5.424;2023-08-08T08:42:34;101405.53;;;19.09;55.94
81125;BME280;71444;52.114;5.424;2023-08-08T08:45:20;101414.75;;;18.95;55.45
81125;BME280;71444;52.114;5.424;2023-08-08T08:48:01;101410.78;;;19.04;56.48
81125;BME280;71444;52.114;5.424;2023-08-08T08:50:51;101404.72;;;19.08;55.17
81125;BME280;71444;52.114;5.424;2023-08-08T08:53:31;101409.38;;;19.21;54.19
81125;BME280;71444;52.114;5.424;2023-08-08T08:56:16;101405.97;;;19.12;54.17
81125;BME280;71444;52.114;5.424;2023-08-08T08:58:57;101421.09;;;19.02;55.00
81125;BME280;71444;52.114;5.424;2023-08-08T09:01:36;101415.63;;;19.02;54.60
81125;BME280;71444;52.114;5.424;2023-08-08T09:04:19;101420.69;;;18.98;55.26
81125;BME280;71444;52.114;5.424;2023-08-08T09:07:00;101422.13;;;18.94;53.67
81125;BME280;71444;52.114;5.424;2023-08-08T09:09:43;101417.06;;;18.91;53.93
81125;BME280;71444;52.114;5.424;2023-08-08T09:12:22;101428.25;;;19.03;55.40
81125;BME280;71444;52.114;5.424;2023-08-08T09:15:03;101415.47;;;19.23;54.89
81125;BME280;71444;52.114;5.424;2023-08-08T09:17:44;101420.75;;;19.31;56.03
81125;BME280;71444;52.114;5.424;2023-08-08T09:20:25;101425.63;;;19.42;57.00
81125;BME280;71444;52.114;5.424;2023-08-08T09:23:09;101415.94;;;19.40;56.54
81125;BME280;71444;52.114;5.424;2023-08-08T09:25:53;101423.38;;;19.66;54.21
81125;BME280;71444;52.114;5.424;2023-08-08T09:28:36;101413.69;;;19.57;55.98
81125;BME280;71444;52.114;5.424;2023-08-08T09:31:16;101406.31;;;19.57;53.60
81125;BME280;71444;52.114;5.424;2023-08-08T09:33:58;101404.41;;;19.58;53.06
81125;BME280;71444;52.114;5.424;2023-08-08T09:36:38;101415.94;;;19.53;54.46
81125;BME280;71444;52.114;5.424;2023-08-08T09:39:19;101420.13;;;19.36;53.58
81125;BME280;71444;52.114;5.424;2023-08-08T09:42:02;101410.41;;;19.27;53.79
81125;BME280;71444;52.114;5.424;2023-08-08T09:44:42;101412.84;;;19.69;54.55
81125;BME280;71444;52.114;5.424;2023-08-08T09:47:22;101408.00;;;19.91;53.86
81125;BME280;71444;52.114;5.424;2023-08-08T09:50:06;101410.09;;;19.83;53.53
81125;BME280;71444;52.114;5.424;2023-08-08T09:52:49;101425.28;;;19.79;52.25
81125;BME280;71444;52.114;5.424;2023-08-08T09:55:34;101419.59;;;19.60;51.62
81125;BME280;71444;52.114;5.424;2023-08-08T09:58:14;101415.38;;;19.58;52.13
81125;BME280;71444;52.114;5.424;2023-08-08T10:00:55;101417.22;;;19.37;52.66
81125;BME280;71444;52.114;5.424;2023-08-08T10:03:35;101432.25;;;19.07;53.97
81125;BME280;71444;52.114;5.424;2023-08-08T10:06:26;101432.38;;;19.46;54.61
81125;BME280;71444;52.114;5.424;2023-08-08T10:09:07;101418.13;;;19.71;52.08
81125;BME280;71444;52.114;5.424;2023-08-08T10:11:47;101424.59;;;19.50;52.61
81125;BME280;71444;52.114;5.424;2023-08-08T10:14:32;101437.00;;;19.46;52.68
81125;BME280;71444;52.114;5.424;2023-08-08T10:17:15;101428.59;;;19.54;53.50
81125;BME280;71444;52.114;5.424;2023-08-08T10:19:56;101420.63;;;19.66;53.52
81125;BME280;71444;52.114;5.424;2023-08-08T10:22:42;101421.28;;;19.74;54.10
81125;BME280;71444;52.114;5.424;2023-08-08T10:25:26;101435.19;;;19.60;54.37
81125;BME280;71444;52.114;5.424;2023-08-08T10:28:10;101429.06;;;19.84;53.80
81125;BME280;71444;52.114;5.424;2023-08-08T10:30:56;101439.84;;;20.12;53.56
81125;BME280;71444;52.114;5.424;2023-08-08T10:33:41;101443.22;;;19.88;52.90
81125;BME280;71444;52.114;5.424;2023-08-08T10:36:22;101437.28;;;19.64;52.30
81125;BME280;71444;52.114;5.424;2023-08-08T10:39:02;101433.91;;;19.62;52.62
81125;BME280;71444;52.114;5.424;2023-08-08T10:41:50;101440.63;;;19.53;53.31
81125;BME280;71444;52.114;5.424;2023-08-08T10:44:40;101442.34;;;19.61;52.12
81125;BME280;71444;52.114;5.424;2023-08-08T10:47:34;101441.84;;;19.44;54.50
81125;BME280;71444;52.114;5.424;2023-08-08T10:50:23;101447.19;;;19.65;54.14
81125;BME280;71444;52.114;5.424;2023-08-08T10:53:11;101439.00;;;19.79;53.08
81125;BME280;71444;52.114;5.424;2023-08-08T10:56:04;101431.81;;;20.04;53.13
81125;BME280;71444;52.114;5.424;2023-08-08T10:58:50;101432.25;;;20.27;52.09
81125;BME280;71444;52.114;5.424;2023-08-08T11:01:30;101424.22;;;20.26;51.34
81125;BME280;71444;52.114;5.424;2023-08-08T11:04:11;101431.56;;;20.52;51.42
81125;BME280;71444;52.114;5.424;2023-08-08T11:06:54;101424.41;;;20.51;51.54
81125;BME280;71444;52.114;5.424;2023-08-08T11:09:39;101429.66;;;20.52;51.28
81125;BME280;71444;52.114;5.424;2023-08-08T11:12:24;101435.78;;;20.61;51.52
81125;BME280;71444;52.114;5.424;2023-08-08T11:15:05;101432.13;;;20.74;51.72
81125;BME280;71444;52.114;5.424;2023-08-08T11:17:44;101438.28;;;20.76;51.61
81125;BME280;71444;52.114;5.424;2023-08-08T11:20:34;101436.38;;;20.76;51.97
81125;BME280;71444;52.114;5.424;2023-08-08T11:23:23;101429.91;;;21.09;50.83
81125;BME280;71444;52.114;5.424;2023-08-08T11:26:03;101441.28;;;21.12;50.91
81125;BME280;71444;52.114;5.424;2023-08-08T11:28:56;101440.44;;;21.12;50.58
81125;BME280;71444;52.114;5.424;2023-08-08T11:31:41;101437.94;;;21.04;50.77
81125;BME280;71444;52.114;5.424;2023-08-08T11:34:31;101425.09;;;20.91;49.70
81125;BME280;71444;52.114;5.424;2023-08-08T11:37:09;101428.66;;;21.05;51.25
81125;BME280;71444;52.114;5.424;2023-08-08T11:39:56;101431.69;;;20.83;48.49
81125;BME280;71444;52.114;5.424;2023-08-08T11:42:44;101423.88;;;20.87;50.71
81125;BME280;71444;52.114;5.424;2023-08-08T11:45:34;101416.41;;;21.01;48.81
81125;BME280;71444;52.114;5.424;2023-08-08T11:48:22;101412.56;;;21.08;48.36
81125;BME280;71444;52.114;5.424;2023-08-08T11:51:08;101411.03;;;21.19;49.84
81125;BME280;71444;52.114;5.424;2023-08-08T11:53:59;101408.25;;;21.26;49.16
81125;BME280;71444;52.114;5.424;2023-08-08T11:56:48;101403.25;;;21.09;48.82
81125;BME280;71444;52.114;5.424;2023-08-08T11:59:33;101410.28;;;20.99;48.71
81125;BME280;71444;52.114;5.424;2023-08-08T12:02:25;101409.81;;;21.15;50.38
81125;BME280;71444;52.114;5.424;2023-08-08T12:05:06;101404.88;;;21.30;49.86
81125;BME280;71444;52.114;5.424;2023-08-08T12:07:39;101408.69;;;21.23;49.78
81125;BME280;71444;52.114;5.424;2023-08-08T12:10:28;101413.84;;;21.06;50.24
81125;BME280;71444;52.114;5.424;2023-08-08T12:13:22;101417.72;;;21.36;49.64
81125;BME280;71444;52.114;5.424;2023-08-08T12:15:53;101409.59;;;21.55;49.68
81125;BME280;71444;52.114;5.424;2023-08-08T12:18:37;101403.44;;;21.84;49.54
81125;BME280;71444;52.114;5.424;2023-08-08T12:21:17;101407.25;;;21.83;49.15
81125;BME280;71444;52.114;5.424;2023-08-08T12:23:57;101415.34;;;21.71;49.22
81125;BME280;71444;52.114;5.424;2023-08-08T12:26:36;101391.91;;;21.69;50.01
81125;BME280;71444;52.114;5.424;2023-08-08T12:29:19;101398.59;;;21.80;49.17
81125;BME280;71444;52.114;5.424;2023-08-08T12:31:59;101403.00;;;21.56;48.22
81125;BME280;71444;52.114;5.424;2023-08-08T12:34:40;101408.25;;;21.26;49.95
81125;BME280;71444;52.114;5.424;2023-08-08T12:37:21;101407.78;;;20.97;51.59
81125;BME280;71444;52.114;5.424;2023-08-08T12:40:01;101410.22;;;21.12;51.16
81125;BME280;71444;52.114;5.424;2023-08-08T12:42:41;101410.81;;;21.20;50.74
81125;BME280;71444;52.114;5.424;2023-08-08T12:45:22;101400.69;;;20.76;50.12
81125;BME280;71444;52.114;5.424;2023-08-08T12:48:02;101414.88;;;20.60;52.21
81125;BME280;71444;52.114;5.424;2023-08-08T12:50:42;101406.25;;;20.37;52.26
81125;BME280;71444;52.114;5.424;2023-08-08T12:53:22;101408.16;;;20.29;53.63
81125;BME280;71444;52.114;5.424;2023-08-08T12:56:01;101402.53;;;20.89;52.89
81125;BME280;71444;52.114;5.424;2023-08-08T12:58:46;101403.75;;;21.69;51.18
81125;BME280;71444;52.114;5.424;2023-08-08T13:01:17;101407.13;;;22.21;48.64
81125;BME280;71444;52.114;5.424;2023-08-08T13:03:59;101402.41;;;22.83;47.91
81125;BME280;71444;52.114;5.424;2023-08-08T13:06:41;101402.56;;;22.70;46.11
81125;BME280;71444;52.114;5.424;2023-08-08T13:09:11;101396.94;;;22.22;46.96
81125;BME280;71444;52.114;5.424;2023-08-08T13:11:56;101422.75;;;21.71;47.92
81125;BME280;71444;52.114;5.424;2023-08-08T13:15:18;101405.16;;;22.03;48.04
81125;BME280;71444;52.114;5.424;2023-08-08T13:17:58;101417.56;;;22.38;48.19
81125;BME280;71444;52.114;5.424;2023-08-08T13:20:38;101413.97;;;22.55;47.24
81125;BME280;71444;52.114;5.424;2023-08-08T13:23:18;101399.97;;;22.94;46.59
81125;BME280;71444;52.114;5.424;2023-08-08T13:25:58;101393.13;;;23.56;44.81
81125;BME280;71444;52.114;5.424;2023-08-08T13:28:41;101409.50;;;23.39;46.32
81125;BME280;71444;52.114;5.424;2023-08-08T13:31:21;101403.81;;;23.53;45.10
81125;BME280;71444;52.114;5.424;2023-08-08T13:34:00;101426.78;;;23.46;45.23
81125;BME280;71444;52.114;5.424;2023-08-08T13:36:40;101408.34;;;23.17;46.70
81125;BME280;71444;52.114;5.424;2023-08-08T13:39:24;101417.56;;;22.56;47.25
81125;BME280;71444;52.114;5.424;2023-08-08T13:42:20;101423.53;;;22.10;47.86
81125;BME280;71444;52.114;5.424;2023-08-08T13:45:08;101426.69;;;21.57;49.63
81125;BME280;71444;52.114;5.424;2023-08-08T13:47:50;101438.28;;;21.27;50.13
81125;BME280;71444;52.114;5.424;2023-08-08T13:50:30;101429.78;;;20.84;51.48
81125;BME280;71444;52.114;5.424;2023-08-08T13:53:15;101429.44;;;20.54;52.00
81125;BME280;71444;52.114;5.424;2023-08-08T13:56:03;101442.72;;;20.63;51.43
81125;BME280;71444;52.114;5.424;2023-08-08T13:58:44;101436.81;;;20.67;52.27
81125;BME280;71444;52.114;5.424;2023-08-08T14:01:24;101448.53;;;20.94;50.76
81125;BME280;71444;52.114;5.424;2023-08-08T14:04:04;101435.47;;;20.89;50.93
81125;BME280;71444;52.114;5.424;2023-08-08T14:06:46;101435.09;;;20.79;51.77
81125;BME280;71444;52.114;5.424;2023-08-08T14:09:26;101433.81;;;20.81;51.51
81125;BME280;71444;52.114;5.424;2023-08-08T14:12:12;101434.50;;;20.63;50.85
81125;BME280;71444;52.114;5.424;2023-08-08T14:14:51;101444.44;;;20.51;52.08
81125;BME280;71444;52.114;5.424;2023-08-08T14:17:35;101436.00;;;20.40;52.52
81125;BME280;71444;52.114;5.424;2023-08-08T14:20:20;101445.72;;;20.49;53.59
81125;BME280;71444;52.114;5.424;2023-08-08T14:23:00;101442.25;;;20.86;52.11
81125;BME280;71444;52.114;5.424;2023-08-08T14:28:45;101434.53;;;21.15;50.83
81125;BME280;71444;52.114;5.424;2023-08-08T14:31:24;101435.56;;;21.59;49.97